AIRPORT_AIRPORT_METAR
METAR FOR KVAY
ADDS - METARS form results

(2258 UTC 30 November 2020)
Data provider http://aviationweather.gov/metar/data/
 
METAR text: KVAY 302254Z AUTO 25010G26KT 1SM +TSRA BR OVC013 17/14 A2937 RMK AO2 PK WND 24026/2249 LTG DSNT N AND S AND SW RAB39 TSB51 SLP945 P0032 T01670144
Conditions at: KVAY (MOUNT HOLLY , NJ, US) observed 2254 UTC 30 November 2020
Temperature: 16.7°C (62°F)
Dewpoint: 14.4°C (58°F) [RH = 86%]
Pressure (altimeter): 29.37 inches Hg (994.7 mb)
[Sea-level pressure:  994.5 mb]
Winds: from the WSW (250 degrees) at 12 MPH (10 knots; 5.1 m/s)
gusting to 30 MPH (26 knots; 13.4 m/s)
Visibility: 1.00 miles (1.61 km)
Ceiling: 1300 feet AGL
Clouds: overcast cloud deck at 1300 feet AGL
Weather: +TSRA BR  (heavy rain associated with thunderstorm(s), mist)

METAR text: KVAY 302251Z AUTO 23013G26KT 2SM +TSRA OVC013 19/16 A2939 RMK AO2 PK WND 24026/2249 LTG DSNT N AND S AND SW RAB39 TSB51 PRESRR P0017
Conditions at: KVAY (MOUNT HOLLY , NJ, US) observed 2251 UTC 30 November 2020
Temperature: 19.0°C (66°F)
Dewpoint: 16.0°C (61°F) [RH = 83%]
Pressure (altimeter): 29.39 inches Hg (995.3 mb)
Winds: from the SW (230 degrees) at 15 MPH (13 knots; 6.7 m/s)
gusting to 30 MPH (26 knots; 13.4 m/s)
Visibility: 2.00 miles (3.22 km)
Ceiling: 1300 feet AGL
Clouds: overcast cloud deck at 1300 feet AGL
Weather: +TSRA  (heavy rain associated with thunderstorm(s))

METAR text: KVAY 302247Z AUTO 25009KT 6SM VCTS -RA BR OVC013 19/17 A2937 RMK AO2 LTG DSNT ALQDS RAB39 PRESRR P0001 T01940172
Conditions at: KVAY (MOUNT HOLLY , NJ, US) observed 2247 UTC 30 November 2020
Temperature: 19.4°C (67°F)
Dewpoint: 17.2°C (63°F) [RH = 87%]
Pressure (altimeter): 29.37 inches Hg (994.7 mb)
Winds: from the WSW (250 degrees) at 10 MPH (9 knots; 4.6 m/s)
Visibility: 6 miles (10 km)
Ceiling: 1300 feet AGL
Clouds: overcast cloud deck at 1300 feet AGL
Weather: VCTS -RA BR  (thunderstorm in vicinity, light rain, mist)

METAR text: KVAY 302240Z AUTO 19008G21KT 9SM VCTS -RA OVC015 20/17 A2935 RMK AO2 LTG DSNT ALQDS RAB39 P0000 T02000172
Conditions at: KVAY (MOUNT HOLLY , NJ, US) observed 2240 UTC 30 November 2020
Temperature: 20.0°C (68°F)
Dewpoint: 17.2°C (63°F) [RH = 84%]
Pressure (altimeter): 29.35 inches Hg (994.0 mb)
Winds: from the S (190 degrees) at 9 MPH (8 knots; 4.1 m/s)
gusting to 24 MPH (21 knots; 10.8 m/s)
Visibility: 9 miles (14 km)
Ceiling: 1500 feet AGL
Clouds: overcast cloud deck at 1500 feet AGL
Weather: VCTS -RA  (thunderstorm in vicinity, light rain)

 AIRPORT_AIRPORT_MAP

 AIRPORT_RUNWAY_INFO
AIRPORT_RUNWAY 08 AIRPORT_RUNWAY_LENGTH 3911 ft AIRPORT_RUNWAY_WIDTH 50 ft
AIRPORT_RUNWAY_ELEVATION 45 ft AIRPORT_RUNWAY_THRESHOLD 0 ft AIRPORT_RUNWAY_HEADING 70
AIRPORT_RUNWAY 26 AIRPORT_RUNWAY_LENGTH 3911 ft AIRPORT_RUNWAY_WIDTH 50 ft
AIRPORT_RUNWAY_ELEVATION 51 ft AIRPORT_RUNWAY_THRESHOLD 0 ft AIRPORT_RUNWAY_HEADING 250

 AIRPORT_AIRPORT_FREQUENCIES
AIRPORT_AIRPORT_NAVAIDS_TYPE A/D AIRPORT_AIRPORT_NAVAIDS_NAME MC GUIRE A AIRPORT_AIRPORT_NAVAIDS_FREQ 124.15 MHZ
AIRPORT_AIRPORT_NAVAIDS_TYPE ASOS AIRPORT_AIRPORT_NAVAIDS_NAME ASOS AIRPORT_AIRPORT_NAVAIDS_FREQ 119.325 MHZ
AIRPORT_AIRPORT_NAVAIDS_TYPE RDO AIRPORT_AIRPORT_NAVAIDS_NAME MILLVILLE AIRPORT_AIRPORT_NAVAIDS_FREQ 122.45 MHZ
AIRPORT_AIRPORT_NAVAIDS_TYPE UNIC AIRPORT_AIRPORT_NAVAIDS_NAME CTAF/UNICO AIRPORT_AIRPORT_NAVAIDS_FREQ 121.725 MHZ

 AIRPORT_AIRPORT_NAVAIDS



Copyright © 2005-2020 - Virtuel Air Alsace - Tous droits réservés